createdAt,value
2023-05-15T00:00:07.532Z,88
2023-05-15T00:01:08.504Z,88
2023-05-15T00:02:08.362Z,88
2023-05-15T00:03:07.696Z,88
2023-05-15T00:04:08.319Z,88
2023-05-15T00:05:08.640Z,88
2023-05-15T00:06:08.680Z,88
2023-05-15T00:07:08.975Z,88
2023-05-15T00:08:09.163Z,88
2023-05-15T00:09:08.376Z,88
2023-05-15T00:10:09.020Z,88
2023-05-15T00:11:09.085Z,88
2023-05-15T00:12:08.811Z,88
2023-05-15T00:13:09.188Z,88
2023-05-15T00:14:08.392Z,88
2023-05-15T00:17:08.446Z,88
2023-05-15T00:18:09.172Z,88
2023-05-15T00:19:09.305Z,88
2023-05-15T00:20:08.520Z,88
2023-05-15T00:21:08.876Z,88
2023-05-15T00:22:09.359Z,88
2023-05-15T00:23:07.951Z,88
2023-05-15T00:24:08.921Z,88
2023-05-15T00:25:08.569Z,88
2023-05-15T00:26:08.642Z,88
2023-05-15T00:27:08.932Z,88
2023-05-15T00:28:08.824Z,88
2023-05-15T00:31:08.852Z,88
2023-05-15T00:33:08.820Z,88
2023-05-15T00:34:08.973Z,88
2023-05-15T00:35:08.563Z,88
2023-05-15T00:36:08.485Z,88
2023-05-15T00:37:08.677Z,89
2023-05-15T00:38:08.851Z,88
2023-05-15T00:39:08.357Z,88
2023-05-15T00:40:08.683Z,88
2023-05-15T00:43:08.445Z,89
2023-05-15T00:44:07.585Z,89
2023-05-15T00:45:08.835Z,89
2023-05-15T00:46:08.352Z,89
2023-05-15T00:47:07.633Z,88
2023-05-15T00:48:08.529Z,88
2023-05-15T00:49:08.603Z,89
2023-05-15T00:50:08.780Z,88
2023-05-15T00:51:08.779Z,89
2023-05-15T00:52:08.829Z,89
2023-05-15T00:55:08.382Z,89
2023-05-15T00:56:08.557Z,89
2023-05-15T00:57:09.074Z,89
2023-05-15T00:58:09.354Z,88
2023-05-15T00:59:08.605Z,88
2023-05-15T01:00:08.907Z,88
2023-05-15T01:01:11.713Z,89
2023-05-15T01:04:08.658Z,89
2023-05-15T01:05:09.078Z,89
2023-05-15T01:06:08.482Z,88
2023-05-15T01:07:08.035Z,88
2023-05-15T01:08:08.448Z,88
2023-05-15T01:10:08.271Z,88
2023-05-15T01:11:08.838Z,88
2023-05-15T01:12:09.048Z,88
2023-05-15T01:13:07.908Z,88
2023-05-15T01:14:08.800Z,88
2023-05-15T01:15:08.967Z,88
2023-05-15T01:16:08.851Z,88
2023-05-15T01:17:08.725Z,88
2023-05-15T01:18:08.969Z,88
2023-05-15T01:22:08.489Z,88
2023-05-15T01:23:08.874Z,88
2023-05-15T01:25:08.521Z,88
2023-05-15T01:26:08.964Z,88
2023-05-15T01:27:09.078Z,88
2023-05-15T01:28:08.516Z,88
2023-05-15T01:29:08.813Z,88
2023-05-15T01:30:08.744Z,88
2023-05-15T01:33:08.769Z,88
2023-05-15T01:34:07.601Z,88
2023-05-15T01:35:08.542Z,88
2023-05-15T01:36:08.519Z,88
2023-05-15T01:37:08.931Z,88
2023-05-15T01:43:09.148Z,88
2023-05-15T01:46:08.841Z,88
2023-05-15T01:47:08.982Z,88
2023-05-15T01:48:08.518Z,88
2023-05-15T01:49:08.641Z,88
2023-05-15T01:50:09.037Z,88
2023-05-15T01:51:09.118Z,88
2023-05-15T01:52:08.374Z,88
2023-05-15T01:53:08.676Z,88
2023-05-15T01:54:07.863Z,88
2023-05-15T01:55:09.294Z,88
2023-05-15T01:57:08.156Z,88
2023-05-15T01:58:09.145Z,88
2023-05-15T01:59:08.856Z,88
2023-05-15T02:00:08.559Z,88
2023-05-15T02:01:09.005Z,88
2023-05-15T02:02:09.001Z,88
2023-05-15T02:03:08.993Z,88
2023-05-15T02:04:08.410Z,88
2023-05-15T02:05:09.122Z,88
2023-05-15T02:07:08.454Z,88
2023-05-15T02:08:08.218Z,88
2023-05-15T02:09:08.988Z,88
2023-05-15T02:10:09.050Z,88
2023-05-15T02:11:08.512Z,88
2023-05-15T02:13:08.463Z,88
2023-05-15T02:14:08.619Z,88
2023-05-15T02:15:07.808Z,88
2023-05-15T02:16:09.047Z,88
2023-05-15T02:17:08.779Z,88
2023-05-15T02:18:07.531Z,88
2023-05-15T02:19:08.757Z,88
2023-05-15T02:20:08.373Z,88
2023-05-15T02:23:08.195Z,88
2023-05-15T02:25:08.275Z,88
2023-05-15T02:26:08.644Z,88
2023-05-15T02:27:09.342Z,88
2023-05-15T02:28:08.070Z,88
2023-05-15T02:29:09.070Z,88
2023-05-15T02:30:08.515Z,88
2023-05-15T02:31:09.229Z,88
2023-05-15T02:32:09.433Z,88
2023-05-15T02:36:08.476Z,88
2023-05-15T02:37:08.730Z,88
2023-05-15T02:38:08.255Z,88
2023-05-15T02:39:09.187Z,88
2023-05-15T02:40:08.805Z,88
2023-05-15T02:41:07.904Z,88
2023-05-15T02:42:09.320Z,88
2023-05-15T02:43:09.106Z,88
2023-05-15T02:46:08.945Z,88
2023-05-15T02:47:09.226Z,88
2023-05-15T02:48:08.665Z,88
2023-05-15T02:49:08.811Z,88
2023-05-15T02:50:08.794Z,88
2023-05-15T02:51:09.064Z,88
2023-05-15T02:53:08.630Z,88
2023-05-15T02:54:08.809Z,88
2023-05-15T02:55:09.180Z,88
2023-05-15T02:56:08.620Z,88
2023-05-15T02:58:08.893Z,88
2023-05-15T02:59:09.125Z,88
2023-05-15T03:00:09.633Z,88
2023-05-15T03:01:08.537Z,88
2023-05-15T03:02:08.584Z,88
2023-05-15T03:03:09.172Z,88
2023-05-15T03:04:08.642Z,88
2023-05-15T03:05:08.767Z,88
2023-05-15T03:08:08.740Z,88
2023-05-15T03:09:08.664Z,88
2023-05-15T03:11:08.773Z,88
2023-05-15T03:12:09.133Z,88
2023-05-15T03:13:08.421Z,88
2023-05-15T03:14:08.575Z,88
2023-05-15T03:15:09.095Z,88
2023-05-15T03:16:09.296Z,88
2023-05-15T03:17:09.177Z,88
2023-05-15T03:18:09.281Z,88
2023-05-15T03:22:08.262Z,88
2023-05-15T03:23:08.511Z,88
2023-05-15T03:24:08.960Z,88
2023-05-15T03:25:08.226Z,88
2023-05-15T03:28:08.310Z,88
2023-05-15T03:29:09.179Z,88
2023-05-15T03:30:09.185Z,88
2023-05-15T03:31:09.295Z,88
2023-05-15T03:32:08.935Z,88
2023-05-15T03:33:09.162Z,88
2023-05-15T03:37:08.967Z,88
2023-05-15T03:38:08.869Z,88
2023-05-15T03:39:08.707Z,88
2023-05-15T03:40:09.243Z,88
2023-05-15T03:41:08.464Z,88
2023-05-15T03:42:08.507Z,88
2023-05-15T03:43:08.772Z,88
2023-05-15T03:44:09.049Z,88
2023-05-15T03:45:09.200Z,88
2023-05-15T03:48:08.830Z,88
2023-05-15T03:49:09.002Z,88
2023-05-15T03:50:09.430Z,88
2023-05-15T03:51:08.269Z,88
2023-05-15T03:52:07.637Z,88
2023-05-15T03:53:08.605Z,88
2023-05-15T03:55:07.804Z,88
2023-05-15T03:59:08.456Z,88
2023-05-15T04:00:08.400Z,88
2023-05-15T04:01:08.982Z,88
2023-05-15T04:02:09.802Z,88
2023-05-15T04:03:08.602Z,88
2023-05-15T04:04:09.260Z,88
2023-05-15T04:07:09.102Z,89
2023-05-15T04:08:08.449Z,88
2023-05-15T04:09:08.293Z,88
2023-05-15T04:10:09.254Z,89
2023-05-15T04:11:08.461Z,89
2023-05-15T04:12:08.212Z,88
2023-05-15T04:13:08.418Z,89
2023-05-15T04:15:08.193Z,89
2023-05-15T04:16:09.493Z,89
2023-05-15T04:17:08.936Z,89
2023-05-15T04:18:09.387Z,89
2023-05-15T04:19:09.149Z,89
2023-05-15T04:21:08.872Z,89
2023-05-15T04:22:08.219Z,89
2023-05-15T04:23:08.705Z,89
2023-05-15T04:24:08.553Z,89
2023-05-15T04:25:08.941Z,89
2023-05-15T04:26:09.207Z,89
2023-05-15T04:27:08.853Z,89
2023-05-15T04:29:11.155Z,89
2023-05-15T04:30:08.863Z,89
2023-05-15T04:33:08.726Z,89
2023-05-15T04:35:08.746Z,89
2023-05-15T04:36:07.828Z,89
2023-05-15T04:37:08.448Z,89
2023-05-15T04:38:08.769Z,89
2023-05-15T04:39:07.838Z,89
2023-05-15T04:40:08.734Z,89
2023-05-15T04:41:08.476Z,89
2023-05-15T04:42:08.537Z,89
2023-05-15T04:43:08.711Z,89
2023-05-15T04:44:08.613Z,89
2023-05-15T04:48:08.528Z,89
2023-05-15T04:52:09.225Z,89
2023-05-15T04:53:08.561Z,89
2023-05-15T04:54:08.950Z,89
2023-05-15T04:55:09.431Z,89
2023-05-15T04:56:08.595Z,89
2023-05-15T04:57:09.064Z,89
2023-05-15T04:58:08.390Z,89
2023-05-15T04:59:08.341Z,89
2023-05-15T05:01:10.744Z,89
2023-05-15T05:02:09.727Z,89
2023-05-15T05:03:09.466Z,89
2023-05-15T05:04:09.555Z,89
2023-05-15T05:07:09.215Z,89
2023-05-15T05:08:09.134Z,89
2023-05-15T05:09:09.167Z,89
2023-05-15T05:10:08.986Z,89
2023-05-15T05:11:09.275Z,89
2023-05-15T05:12:08.327Z,89
2023-05-15T05:13:08.974Z,89
2023-05-15T05:16:08.943Z,89
2023-05-15T05:17:09.001Z,89
2023-05-15T05:18:08.261Z,89
2023-05-15T05:19:08.832Z,89
2023-05-15T05:20:11.224Z,89
2023-05-15T05:21:09.062Z,89
2023-05-15T05:22:08.554Z,89
2023-05-15T05:23:08.010Z,89
2023-05-15T05:24:09.248Z,89
2023-05-15T05:25:08.459Z,89
2023-05-15T05:26:08.399Z,89
2023-05-15T05:27:08.814Z,89
2023-05-15T05:28:08.718Z,89
2023-05-15T05:31:08.640Z,89
2023-05-15T05:32:09.141Z,89
2023-05-15T05:33:08.706Z,89
2023-05-15T05:34:08.281Z,89
2023-05-15T05:35:08.611Z,89
2023-05-15T05:36:08.785Z,89
2023-05-15T05:38:08.158Z,89
2023-05-15T05:39:08.917Z,89
2023-05-15T05:40:08.875Z,89
2023-05-15T05:45:08.252Z,89
2023-05-15T05:46:08.407Z,89
2023-05-15T05:47:08.922Z,89
2023-05-15T05:48:09.242Z,89
2023-05-15T05:49:08.317Z,89
2023-05-15T05:50:07.260Z,89
2023-05-15T05:51:08.107Z,89
2023-05-15T05:52:08.071Z,89
2023-05-15T05:53:08.317Z,89
2023-05-15T05:54:09.225Z,89
2023-05-15T05:55:09.121Z,89
2023-05-15T05:56:08.997Z,89
2023-05-15T05:58:27.568Z,89
2023-05-15T06:03:08.805Z,89
2023-05-15T06:06:08.421Z,89
2023-05-15T06:07:08.360Z,89
2023-05-15T06:08:08.956Z,89
2023-05-15T06:09:09.008Z,89
2023-05-15T06:10:08.013Z,89
2023-05-15T06:11:08.571Z,89
2023-05-15T06:13:08.022Z,89
2023-05-15T06:14:08.961Z,89
2023-05-15T06:15:08.580Z,89
2023-05-15T06:16:08.684Z,89
2023-05-15T06:17:08.884Z,89
2023-05-15T06:18:08.625Z,89
2023-05-15T06:19:08.975Z,89
2023-05-15T06:20:08.627Z,89
2023-05-15T06:21:08.397Z,89
2023-05-15T06:25:08.728Z,89
2023-05-15T06:26:08.443Z,89
2023-05-15T06:27:08.243Z,89
2023-05-15T06:28:08.350Z,89
2023-05-15T06:29:08.635Z,89
2023-05-15T06:30:08.796Z,89
2023-05-15T06:31:09.083Z,89
2023-05-15T06:32:08.276Z,89
2023-05-15T06:33:08.996Z,89
2023-05-15T06:36:08.488Z,89
2023-05-15T06:37:07.349Z,89
2023-05-15T06:38:08.479Z,89
2023-05-15T06:39:08.404Z,89
2023-05-15T06:40:07.560Z,89
2023-05-15T06:41:08.223Z,89
2023-05-15T06:42:09.107Z,89
2023-05-15T06:43:09.211Z,89
2023-05-15T06:46:09.012Z,89
2023-05-15T06:47:09.733Z,89
2023-05-15T06:48:09.115Z,89
2023-05-15T06:49:09.134Z,89
2023-05-15T06:50:08.404Z,89
2023-05-15T06:51:08.932Z,89
2023-05-15T06:52:08.691Z,89
2023-05-15T06:53:08.888Z,89
2023-05-15T06:54:08.318Z,89
2023-05-15T06:55:08.845Z,89
2023-05-15T06:56:09.081Z,89
2023-05-15T06:57:08.118Z,89
2023-05-15T06:58:08.325Z,89
2023-05-15T06:59:09.012Z,89
2023-05-15T07:00:08.023Z,89
2023-05-15T07:01:08.414Z,89
2023-05-15T07:02:09.236Z,89
2023-05-15T07:03:07.840Z,89
2023-05-15T07:04:08.994Z,89
2023-05-15T07:05:09.166Z,89
2023-05-15T07:06:07.743Z,89
2023-05-15T07:07:08.565Z,89
2023-05-15T07:11:08.542Z,89
2023-05-15T07:12:08.475Z,89
2023-05-15T07:13:08.554Z,89
2023-05-15T07:14:09.050Z,89
2023-05-15T07:15:09.268Z,89
2023-05-15T07:16:08.052Z,89
2023-05-15T07:17:08.533Z,89
2023-05-15T07:18:08.998Z,89
2023-05-15T07:19:08.920Z,89
2023-05-15T07:20:08.907Z,89
2023-05-15T07:21:08.252Z,89
2023-05-15T07:22:09.929Z,89
2023-05-15T07:23:08.711Z,89
2023-05-15T07:24:09.117Z,89
2023-05-15T07:25:08.035Z,89
2023-05-15T07:26:12.012Z,89
2023-05-15T07:30:07.244Z,89
2023-05-15T07:31:09.956Z,89
2023-05-15T07:32:09.482Z,89
2023-05-15T07:33:09.098Z,89
2023-05-15T07:34:09.171Z,89
2023-05-15T07:35:08.406Z,89
2023-05-15T07:36:09.011Z,89
2023-05-15T07:38:08.993Z,89
2023-05-15T07:39:09.329Z,88
2023-05-15T07:40:08.840Z,88
2023-05-15T07:41:08.915Z,89
2023-05-15T07:42:09.092Z,88
2023-05-15T07:43:08.362Z,88
2023-05-15T07:46:08.623Z,88
2023-05-15T07:47:08.066Z,88
2023-05-15T07:48:09.519Z,88
2023-05-15T07:49:08.463Z,88
2023-05-15T07:50:07.887Z,88
2023-05-15T07:51:09.266Z,88
2023-05-15T07:52:09.022Z,88
2023-05-15T07:56:08.621Z,88
2023-05-15T07:57:08.651Z,88
2023-05-15T07:58:08.644Z,88
2023-05-15T07:59:08.691Z,88
2023-05-15T08:00:08.810Z,88
2023-05-15T08:01:08.471Z,88
2023-05-15T08:02:08.446Z,88
2023-05-15T08:03:09.147Z,87
2023-05-15T08:04:09.486Z,87
2023-05-15T08:06:08.501Z,87
2023-05-15T08:07:08.815Z,87
2023-05-15T08:08:09.039Z,87
2023-05-15T08:09:08.148Z,87
2023-05-15T08:10:08.682Z,87
2023-05-15T08:11:07.436Z,87
2023-05-15T08:12:08.557Z,87
2023-05-15T08:13:08.349Z,87
2023-05-15T08:14:07.827Z,87
2023-05-15T08:15:08.598Z,87
2023-05-15T08:16:08.432Z,87
2023-05-15T08:17:07.039Z,87
2023-05-15T08:18:08.844Z,87
2023-05-15T08:19:09.299Z,86
2023-05-15T08:20:09.295Z,86
2023-05-15T08:21:09.936Z,86
2023-05-15T08:22:09.086Z,86
2023-05-15T08:23:09.336Z,86
2023-05-15T08:24:09.113Z,86
2023-05-15T08:27:09.096Z,86
2023-05-15T08:28:08.286Z,86
2023-05-15T08:29:08.705Z,86
2023-05-15T08:30:09.044Z,86
2023-05-15T08:31:09.022Z,86
2023-05-15T08:32:08.112Z,86
2023-05-15T08:33:08.605Z,86
2023-05-15T08:37:08.061Z,86
2023-05-15T08:38:09.024Z,86
2023-05-15T08:39:08.899Z,86
2023-05-15T08:40:08.213Z,86
2023-05-15T08:41:08.466Z,86
2023-05-15T08:42:08.169Z,86
2023-05-15T08:43:08.680Z,86
2023-05-15T08:44:08.507Z,86
2023-05-15T08:45:08.487Z,86
2023-05-15T08:46:08.625Z,86
2023-05-15T08:50:08.585Z,86
2023-05-15T08:51:08.944Z,86
2023-05-15T08:52:09.350Z,86
2023-05-15T08:53:08.725Z,86
2023-05-15T08:54:08.822Z,86
2023-05-15T08:55:09.120Z,86
2023-05-15T08:56:08.796Z,86
2023-05-15T08:57:08.993Z,86
2023-05-15T08:58:07.450Z,86
2023-05-15T08:59:09.024Z,86
2023-05-15T09:00:10.871Z,86
2023-05-15T09:01:07.446Z,86
2023-05-15T09:02:08.843Z,86
2023-05-15T09:03:08.521Z,86
2023-05-15T09:04:07.769Z,86
2023-05-15T09:05:08.570Z,86
2023-05-15T09:06:08.344Z,86
2023-05-15T09:07:09.237Z,86
2023-05-15T09:08:09.148Z,85
2023-05-15T09:09:09.179Z,85
2023-05-15T09:10:08.027Z,85
2023-05-15T09:11:09.095Z,85
2023-05-15T09:12:08.845Z,85
2023-05-15T09:13:09.257Z,85
2023-05-15T09:14:08.444Z,85
2023-05-15T09:15:08.928Z,85
2023-05-15T09:16:08.233Z,85
2023-05-15T09:17:09.173Z,85
2023-05-15T09:18:09.451Z,84
2023-05-15T09:19:08.314Z,85
2023-05-15T09:20:08.661Z,85
2023-05-15T09:24:07.842Z,84
2023-05-15T09:25:08.921Z,84
2023-05-15T09:26:08.866Z,84
2023-05-15T09:27:08.653Z,83
2023-05-15T09:28:08.989Z,83
2023-05-15T09:29:08.836Z,83
2023-05-15T09:30:08.990Z,83
2023-05-15T09:31:09.024Z,83
2023-05-15T09:32:08.815Z,83
2023-05-15T09:33:08.424Z,82
2023-05-15T09:34:08.620Z,82
2023-05-15T09:35:08.935Z,82
2023-05-15T09:36:08.588Z,82
2023-05-15T09:37:08.431Z,81
2023-05-15T09:38:08.838Z,81
2023-05-15T09:39:09.099Z,81
2023-05-15T09:40:08.318Z,81
2023-05-15T09:41:08.695Z,81
2023-05-15T09:42:08.731Z,81
2023-05-15T09:43:08.787Z,81
2023-05-15T09:45:07.847Z,81
2023-05-15T09:46:09.160Z,81
2023-05-15T09:47:08.802Z,81
2023-05-15T09:48:08.147Z,81
2023-05-15T09:49:08.451Z,81
2023-05-15T09:50:08.426Z,80
2023-05-15T09:51:08.262Z,80
2023-05-15T09:52:08.466Z,80
2023-05-15T09:53:08.400Z,80
2023-05-15T09:56:09.235Z,80
2023-05-15T09:57:09.082Z,80
2023-05-15T09:58:09.244Z,79
2023-05-15T09:59:08.287Z,79
2023-05-15T10:00:08.573Z,79
2023-05-15T10:01:09.222Z,79
2023-05-15T10:02:08.338Z,79
2023-05-15T10:03:08.599Z,79
2023-05-15T10:04:08.879Z,79
2023-05-15T10:05:09.398Z,79
2023-05-15T10:06:08.436Z,79
2023-05-15T10:07:09.064Z,78
2023-05-15T10:08:08.212Z,78
2023-05-15T10:09:09.293Z,78
2023-05-15T10:11:09.044Z,78
2023-05-15T10:12:09.338Z,78
2023-05-15T10:13:08.573Z,78
2023-05-15T10:14:09.268Z,78
2023-05-15T10:15:09.290Z,78
2023-05-15T10:18:09.511Z,78
2023-05-15T10:19:11.466Z,78
2023-05-15T10:22:08.592Z,77
2023-05-15T10:23:08.958Z,76
2023-05-15T10:24:08.132Z,76
2023-05-15T10:25:08.989Z,76
2023-05-15T10:26:09.146Z,76
2023-05-15T10:27:09.274Z,76
2023-05-15T10:28:08.511Z,75
2023-05-15T10:29:08.896Z,75
2023-05-15T10:30:09.266Z,75
2023-05-15T10:31:09.015Z,75
2023-05-15T10:32:07.932Z,75
2023-05-15T10:33:09.254Z,76
2023-05-15T10:34:08.306Z,76
2023-05-15T10:35:08.651Z,76
2023-05-15T10:36:08.759Z,75
2023-05-15T10:37:08.939Z,75
2023-05-15T10:38:09.097Z,74
2023-05-15T10:41:23.064Z,74
2023-05-15T10:43:08.706Z,74
2023-05-15T10:44:08.918Z,74
2023-05-15T10:45:09.271Z,74
2023-05-15T10:46:08.455Z,74
2023-05-15T10:47:09.090Z,74
2023-05-15T10:48:09.534Z,73
2023-05-15T10:49:08.295Z,73
2023-05-15T10:50:08.620Z,73
2023-05-15T10:51:10.622Z,72
2023-05-15T10:52:08.322Z,72
2023-05-15T10:54:08.914Z,72
2023-05-15T10:55:09.328Z,72
2023-05-15T10:56:08.481Z,72
2023-05-15T10:57:08.307Z,72
2023-05-15T10:58:08.605Z,72
2023-05-15T10:59:08.900Z,71
2023-05-15T11:00:08.612Z,71
2023-05-15T11:01:08.864Z,71
2023-05-15T11:03:08.721Z,70
2023-05-15T11:04:08.932Z,70
2023-05-15T11:06:08.352Z,70
2023-05-15T11:07:08.391Z,70
2023-05-15T11:08:08.532Z,70
2023-05-15T11:09:08.811Z,70
2023-05-15T11:10:10.686Z,69
2023-05-15T11:11:09.794Z,69
2023-05-15T11:12:08.947Z,69
2023-05-15T11:15:08.097Z,70
2023-05-15T11:16:08.759Z,70
2023-05-15T11:17:08.008Z,70
2023-05-15T11:18:08.553Z,70
2023-05-15T11:19:08.626Z,70
2023-05-15T11:20:08.987Z,70
2023-05-15T11:21:08.683Z,70
2023-05-15T11:22:08.635Z,70
2023-05-15T11:23:08.164Z,70
2023-05-15T11:24:08.247Z,70
2023-05-15T11:25:08.960Z,70
2023-05-15T11:26:08.737Z,70
2023-05-15T11:27:08.883Z,70
2023-05-15T11:28:08.734Z,70
2023-05-15T11:29:08.792Z,69
2023-05-15T11:30:09.384Z,69
2023-05-15T11:31:08.514Z,69
2023-05-15T11:32:08.757Z,69
2023-05-15T11:33:09.125Z,68
2023-05-15T11:36:08.181Z,68
2023-05-15T11:37:08.629Z,67
2023-05-15T11:38:09.041Z,67
2023-05-15T11:42:09.164Z,66
2023-05-15T11:43:09.210Z,66
2023-05-15T11:44:09.307Z,66
2023-05-15T11:45:09.020Z,67
2023-05-15T11:46:08.937Z,67
2023-05-15T11:47:09.314Z,66
2023-05-15T11:50:08.973Z,66
2023-05-15T11:51:09.033Z,67
2023-05-15T11:52:08.451Z,67
2023-05-15T11:53:08.902Z,67
2023-05-15T11:55:09.025Z,67
2023-05-15T11:57:08.876Z,67
2023-05-15T11:58:08.684Z,67
2023-05-15T11:59:09.195Z,67
2023-05-15T12:00:08.574Z,67
2023-05-15T12:01:10.920Z,67
2023-05-15T12:03:08.752Z,67
2023-05-15T12:04:09.903Z,67
2023-05-15T12:05:08.382Z,67
2023-05-15T12:06:08.557Z,67
2023-05-15T12:07:09.749Z,67
2023-05-15T12:08:09.234Z,67
2023-05-15T12:12:08.931Z,67
2023-05-15T12:13:08.665Z,66
2023-05-15T12:14:09.002Z,66
2023-05-15T12:16:09.146Z,66
2023-05-15T12:18:08.489Z,66
2023-05-15T12:19:09.032Z,67
2023-05-15T12:20:08.204Z,67
2023-05-15T12:21:08.846Z,67
2023-05-15T12:22:09.056Z,67
2023-05-15T12:23:08.336Z,66
2023-05-15T12:24:12.729Z,66
2023-05-15T12:25:07.717Z,66
2023-05-15T12:26:09.101Z,65
2023-05-15T12:27:08.582Z,65
2023-05-15T12:28:07.472Z,65
2023-05-15T12:29:08.263Z,65
2023-05-15T12:30:08.580Z,65
2023-05-15T12:31:08.486Z,66
2023-05-15T12:32:08.596Z,66
2023-05-15T12:33:08.617Z,66
2023-05-15T12:36:08.299Z,66
2023-05-15T12:40:08.902Z,66
2023-05-15T12:41:09.190Z,66
2023-05-15T12:42:08.544Z,67
2023-05-15T12:43:08.908Z,67
2023-05-15T12:44:09.035Z,67
2023-05-15T12:45:08.636Z,68
2023-05-15T12:46:08.913Z,69
2023-05-15T12:47:09.031Z,69
2023-05-15T12:48:08.315Z,70
2023-05-15T12:49:09.557Z,70
2023-05-15T12:50:08.470Z,71
2023-05-15T12:51:08.110Z,72
2023-05-15T12:52:09.170Z,72
2023-05-15T12:54:08.846Z,72
2023-05-15T12:55:09.088Z,73
2023-05-15T12:56:09.298Z,73
2023-05-15T12:57:08.820Z,73
2023-05-15T12:59:08.809Z,73
2023-05-15T13:00:08.979Z,74
2023-05-15T13:01:09.813Z,74
2023-05-15T13:02:09.137Z,74
2023-05-15T13:03:09.283Z,74
2023-05-15T13:04:08.739Z,74
2023-05-15T13:05:08.754Z,74
2023-05-15T13:06:09.241Z,74
2023-05-15T13:07:08.620Z,75
2023-05-15T13:10:08.670Z,75
2023-05-15T13:11:08.659Z,75
2023-05-15T13:12:07.538Z,75
2023-05-15T13:13:08.905Z,76
2023-05-15T13:14:08.600Z,76
2023-05-15T13:15:07.667Z,76
2023-05-15T13:16:11.048Z,76
2023-05-15T13:17:08.267Z,76
2023-05-15T13:19:08.613Z,76
2023-05-15T13:21:08.514Z,76
2023-05-15T13:22:08.548Z,76
2023-05-15T13:23:09.018Z,76
2023-05-15T13:24:08.549Z,76
2023-05-15T13:25:07.904Z,76
2023-05-15T13:26:08.848Z,76
2023-05-15T13:27:09.249Z,76
2023-05-15T13:28:09.319Z,76
2023-05-15T13:30:08.607Z,76
2023-05-15T13:31:08.749Z,76
2023-05-15T13:32:08.806Z,76
2023-05-15T13:33:09.409Z,76
2023-05-15T13:35:08.335Z,76
2023-05-15T13:36:55.985Z,76
2023-05-15T13:38:11.451Z,76
2023-05-15T13:40:09.221Z,76
2023-05-15T13:41:08.273Z,75
2023-05-15T13:42:09.443Z,75
2023-05-15T13:43:09.293Z,75
2023-05-15T13:44:08.696Z,75
2023-05-15T13:45:08.326Z,75
2023-05-15T13:46:09.075Z,74
2023-05-15T13:49:10.129Z,74
2023-05-15T13:50:08.788Z,74
2023-05-15T13:51:09.051Z,74
2023-05-15T13:55:08.514Z,73
2023-05-15T13:56:08.969Z,73
2023-05-15T13:57:09.020Z,73
2023-05-15T13:58:08.172Z,73
2023-05-15T13:59:08.497Z,73
2023-05-15T14:00:08.645Z,73
2023-05-15T14:01:08.970Z,73
2023-05-15T14:02:09.248Z,73
2023-05-15T14:03:09.842Z,73
2023-05-15T14:04:09.097Z,73
2023-05-15T14:05:08.947Z,73
2023-05-15T14:08:08.876Z,73
2023-05-15T14:09:08.834Z,73
2023-05-15T14:10:09.084Z,73
2023-05-15T14:11:08.939Z,73
2023-05-15T14:12:09.148Z,72
2023-05-15T14:13:08.329Z,72
2023-05-15T14:14:08.477Z,72
2023-05-15T14:15:08.543Z,72
2023-05-15T14:16:09.101Z,72
2023-05-15T14:17:08.504Z,72
2023-05-15T14:18:08.685Z,73
2023-05-15T14:19:08.929Z,72
2023-05-15T14:20:09.197Z,72
2023-05-15T14:21:08.393Z,72
2023-05-15T14:22:08.955Z,72
2023-05-15T14:23:09.168Z,72
2023-05-15T14:27:08.870Z,72
2023-05-15T14:28:08.625Z,71
2023-05-15T14:29:09.024Z,71
2023-05-15T14:30:08.773Z,71
2023-05-15T14:31:08.748Z,71
2023-05-15T14:32:08.866Z,71
2023-05-15T14:36:08.704Z,70
2023-05-15T14:37:08.900Z,70
2023-05-15T14:38:08.943Z,70
2023-05-15T14:39:08.466Z,70
2023-05-15T14:40:09.053Z,70
2023-05-15T14:41:09.113Z,70
2023-05-15T14:42:08.427Z,70
2023-05-15T14:43:08.764Z,70
2023-05-15T14:44:07.577Z,70
2023-05-15T14:45:08.844Z,70
2023-05-15T14:46:12.698Z,70
2023-05-15T14:47:08.335Z,70
2023-05-15T14:48:08.947Z,70
2023-05-15T14:49:09.025Z,70
2023-05-15T14:50:07.284Z,70
2023-05-15T14:51:09.037Z,70
2023-05-15T14:52:08.335Z,70
2023-05-15T14:53:08.670Z,70
2023-05-15T14:54:08.936Z,70
2023-05-15T14:55:12.083Z,70
2023-05-15T14:57:08.397Z,70
2023-05-15T14:58:08.534Z,70
2023-05-15T14:59:08.293Z,70
2023-05-15T15:00:09.720Z,70
2023-05-15T15:01:08.886Z,70
2023-05-15T15:02:09.194Z,70
2023-05-15T15:03:09.586Z,70
2023-05-15T15:04:08.580Z,70
2023-05-15T15:05:08.692Z,70
2023-05-15T15:06:08.752Z,70
2023-05-15T15:07:09.004Z,71
2023-05-15T15:08:08.076Z,71
2023-05-15T15:09:08.551Z,71
2023-05-15T15:13:08.497Z,71
2023-05-15T15:14:07.395Z,71
2023-05-15T15:15:08.436Z,72
2023-05-15T15:16:09.398Z,72
2023-05-15T15:18:09.457Z,72
2023-05-15T15:19:08.857Z,72
2023-05-15T15:20:09.335Z,72
2023-05-15T15:21:08.944Z,73
2023-05-15T15:22:08.870Z,73
2023-05-15T15:25:08.890Z,73
2023-05-15T15:26:08.292Z,73
2023-05-15T15:27:08.365Z,73
2023-05-15T15:28:08.824Z,73
2023-05-15T15:29:08.891Z,73
2023-05-15T15:30:08.297Z,73
2023-05-15T15:31:08.808Z,73
2023-05-15T15:32:08.562Z,73
2023-05-15T15:33:08.713Z,73
2023-05-15T15:34:11.732Z,73
2023-05-15T15:35:09.094Z,73
2023-05-15T15:38:09.001Z,73
2023-05-15T15:39:08.798Z,73
2023-05-15T15:40:08.247Z,73
2023-05-15T15:41:08.611Z,73
2023-05-15T15:42:12.041Z,73
2023-05-15T15:43:08.933Z,73
2023-05-15T15:46:08.922Z,72
2023-05-15T15:47:08.697Z,72
2023-05-15T15:48:08.957Z,72
2023-05-15T15:49:11.314Z,72
2023-05-15T15:52:08.671Z,71
2023-05-15T15:53:08.919Z,71
2023-05-15T15:54:08.276Z,72
2023-05-15T15:55:08.644Z,72
2023-05-15T15:56:08.500Z,71
2023-05-15T16:00:08.708Z,71
2023-05-15T16:01:08.497Z,71
2023-05-15T16:02:08.918Z,71
2023-05-15T16:03:08.786Z,71
2023-05-15T16:04:07.358Z,71
2023-05-15T16:05:08.600Z,71
2023-05-15T16:06:08.449Z,71
2023-05-15T16:09:08.213Z,71
2023-05-15T16:10:18.903Z,71
2023-05-15T16:12:08.576Z,71
2023-05-15T16:13:08.349Z,71
2023-05-15T16:14:08.687Z,71
2023-05-15T16:15:28.604Z,71
2023-05-15T16:17:09.925Z,71
2023-05-15T16:18:08.887Z,71
2023-05-15T16:19:08.337Z,72
2023-05-15T16:20:08.792Z,72
2023-05-15T16:21:08.356Z,72
2023-05-15T16:22:08.536Z,72
2023-05-15T16:23:09.022Z,72
2023-05-15T16:26:08.391Z,72
2023-05-15T16:27:08.241Z,72
2023-05-15T16:28:11.466Z,72
2023-05-15T16:29:08.318Z,72
2023-05-15T16:30:09.106Z,72
2023-05-15T16:31:09.218Z,73
2023-05-15T16:32:08.489Z,73
2023-05-15T16:33:08.219Z,73
2023-05-15T16:34:10.273Z,73
2023-05-15T16:36:08.457Z,72
2023-05-15T16:37:08.837Z,72
2023-05-15T16:38:08.248Z,72
2023-05-15T16:39:08.489Z,72
2023-05-15T16:40:08.778Z,72
2023-05-15T16:41:09.200Z,72
2023-05-15T16:42:11.435Z,72
2023-05-15T16:44:08.909Z,72
2023-05-15T16:45:09.076Z,72
2023-05-15T16:46:08.476Z,72
2023-05-15T16:47:08.579Z,72
2023-05-15T16:48:08.412Z,72
2023-05-15T16:49:09.264Z,72
2023-05-15T16:50:08.448Z,72
2023-05-15T16:51:07.764Z,72
2023-05-15T16:52:08.613Z,72
2023-05-15T16:53:08.754Z,72
2023-05-15T16:54:08.788Z,72
2023-05-15T16:55:08.648Z,72
2023-05-15T16:58:08.434Z,73
2023-05-15T16:59:08.527Z,73
2023-05-15T17:00:09.074Z,73
2023-05-15T17:02:09.698Z,73
2023-05-15T17:03:08.656Z,73
2023-05-15T17:04:08.995Z,73
2023-05-15T17:05:08.845Z,73
2023-05-15T17:07:08.333Z,73
2023-05-15T17:08:08.619Z,74
2023-05-15T17:09:08.744Z,74
2023-05-15T17:10:09.115Z,74
2023-05-15T17:11:08.336Z,74
2023-05-15T17:12:07.277Z,74
2023-05-15T17:13:09.269Z,74
2023-05-15T17:14:09.081Z,74
2023-05-15T17:15:08.331Z,75
2023-05-15T17:16:09.410Z,75
2023-05-15T17:17:08.182Z,75
2023-05-15T17:18:08.683Z,75
2023-05-15T17:19:09.364Z,75
2023-05-15T17:21:08.676Z,75
2023-05-15T17:22:09.056Z,75
2023-05-15T17:23:08.370Z,75
2023-05-15T17:24:08.522Z,75
2023-05-15T17:27:08.217Z,76
2023-05-15T17:28:08.459Z,76
2023-05-15T17:29:08.761Z,76
2023-05-15T17:30:09.362Z,76
2023-05-15T17:31:08.233Z,76
2023-05-15T17:32:08.627Z,76
2023-05-15T17:33:09.265Z,76
2023-05-15T17:38:07.472Z,76
2023-05-15T17:39:08.884Z,76
2023-05-15T17:40:08.701Z,76
2023-05-15T17:41:08.989Z,76
2023-05-15T17:42:08.838Z,76
2023-05-15T17:43:09.297Z,76
2023-05-15T17:44:08.536Z,76
2023-05-15T17:45:08.807Z,76
2023-05-15T17:46:09.467Z,76
2023-05-15T17:47:08.234Z,76
2023-05-15T17:48:08.788Z,76
2023-05-15T17:49:09.019Z,76